Time;durP1;ratioP1;P1;durP2;ratioP2;P2;SDS_P1;SDS_P2;PMS_P1;PMS_P2;Temp;Humidity;BMP_temperature;BMP_pressure;BME280_temperature;BME280_humidity;BME280_pressure;Samples;Min_cycle;Max_cycle;Signal;HPM_P1;HPM_P2
2024/01/21 00:01:35;;;;;;;17.80;5.20;;;;;;;0.20;78.25;101722.17;108319;1267;22534;-76
2024/01/21 00:04:26;;;;;;;25.70;5.20;;;;;;;0.18;78.34;101726.87;108744;1261;22636;-75
2024/01/21 00:07:15;;;;;;;;;;;;;;;0.18;78.36;101726.00;108522;1264;25306;-76
2024/01/21 00:10:10;;;;;;;21.90;4.80;;;;;;;0.18;78.44;101726.08;108393;1267;22744;-78
2024/01/21 00:13:00;;;;;;;16.10;4.90;;;;;;;0.19;78.70;101722.64;111443;1268;22231;-77
2024/01/21 00:15:51;;;;;;;17.70;5.20;;;;;;;0.19;78.53;101719.43;109593;1268;22579;-77
2024/01/21 00:18:40;;;;;;;;;;;;;;;0.20;78.48;101728.46;108225;1268;24193;-75
2024/01/21 00:21:31;;;;;;;24.70;4.80;;;;;;;0.20;78.58;101736.39;108267;1267;22734;-75
2024/01/21 00:24:22;;;;;;;20.60;6.00;;;;;;;0.21;78.71;101740.57;108327;1263;22724;-78
2024/01/21 00:27:11;;;;;;;;;;;;;;;0.23;78.73;101744.44;108464;1267;25377;-76
2024/01/21 00:30:02;;;;;;;21.10;5.40;;;;;;;0.23;78.87;101738.00;108380;1266;22656;-77
2024/01/21 00:32:53;;;;;;;35.40;9.60;;;;;;;0.25;78.83;101736.46;108317;1263;26035;-74
2024/01/21 00:35:44;;;;;;;21.00;5.40;;;;;;;0.26;78.75;101739.36;108422;1266;23765;-75
2024/01/21 00:38:38;;;;;;;19.50;5.40;;;;;;;0.26;78.57;101742.73;108501;1267;22540;-75
2024/01/21 00:41:29;;;;;;;20.20;4.70;;;;;;;0.26;78.45;101749.73;108337;1267;22657;-75
2024/01/21 00:44:20;;;;;;;22.80;6.40;;;;;;;0.25;78.31;101752.70;108369;1267;23876;-75
2024/01/21 00:47:11;;;;;;;20.60;5.10;;;;;;;0.24;78.07;101758.56;108508;1267;25262;-77
2024/01/21 00:50:03;;;;;;;15.50;3.70;;;;;;;0.24;78.23;101763.42;108373;1267;25381;-75
2024/01/21 00:52:54;;;;;;;30.30;6.80;;;;;;;0.23;78.04;101766.09;108415;1267;25325;-76
2024/01/21 00:55:45;;;;;;;19.00;4.30;;;;;;;0.23;78.15;101772.68;108370;1266;22635;-75
2024/01/21 00:58:34;;;;;;;;;;;;;;;0.23;78.21;101772.29;108545;1267;24333;-76
2024/01/21 01:01:25;;;;;;;16.50;3.90;;;;;;;0.23;78.14;101770.25;108655;1267;22610;-77
2024/01/21 01:04:16;;;;;;;19.40;3.10;;;;;;;0.23;78.10;101765.70;108343;1267;24372;-75
2024/01/21 01:07:07;;;;;;;18.10;4.20;;;;;;;0.23;77.88;101766.79;108457;1267;22536;-81
2024/01/21 01:09:58;;;;;;;21.40;4.80;;;;;;;0.21;77.81;101768.34;108368;1268;23605;-75
2024/01/21 01:12:49;;;;;;;18.00;5.10;;;;;;;0.20;77.80;101764.71;108110;1268;23069;-76
2024/01/21 01:15:40;;;;;;;23.00;5.90;;;;;;;0.19;77.79;101764.86;108064;1268;22580;-75
2024/01/21 01:18:31;;;;;;;17.60;5.00;;;;;;;0.20;77.72;101763.54;108594;1267;22611;-76
2024/01/21 01:21:22;;;;;;;25.80;5.00;;;;;;;0.19;77.62;101756.92;108447;1267;22551;-75
2024/01/21 01:24:13;;;;;;;22.50;4.70;;;;;;;0.17;77.56;101758.02;108481;1267;23929;-78
2024/01/21 01:27:04;;;;;;;24.60;5.80;;;;;;;0.17;77.74;101755.41;108431;1263;22731;-75
2024/01/21 01:29:55;;;;;;;19.60;5.20;;;;;;;0.18;77.89;101753.54;108467;1261;25563;-75
2024/01/21 01:32:46;;;;;;;23.30;5.60;;;;;;;0.18;77.93;101755.20;108398;1267;25262;-75
2024/01/21 01:35:37;;;;;;;16.80;4.20;;;;;;;0.18;77.76;101753.85;108458;1260;24356;-76
2024/01/21 01:38:28;;;;;;;18.10;4.50;;;;;;;0.18;77.77;101754.24;108598;1266;22524;-76
2024/01/21 01:41:19;;;;;;;27.10;8.20;;;;;;;0.18;77.73;101749.33;108431;1267;25399;-75
2024/01/21 01:44:10;;;;;;;20.80;5.50;;;;;;;0.19;77.68;101753.23;108376;1264;25427;-75
2024/01/21 01:47:01;;;;;;;27.00;6.00;;;;;;;0.20;77.90;101756.17;108339;1263;22520;-76
2024/01/21 01:49:53;;;;;;;24.50;6.50;;;;;;;0.21;77.78;101759.39;108307;1266;25662;-75
2024/01/21 01:52:45;;;;;;;20.50;6.40;;;;;;;0.22;77.93;101762.23;108224;1266;24376;-77
2024/01/21 01:55:36;;;;;;;22.20;6.80;;;;;;;0.25;78.15;101763.44;108452;1266;22726;-78
2024/01/21 01:58:30;;;;;;;27.20;6.80;;;;;;;0.29;78.28;101764.52;108398;1260;25109;-76
2024/01/21 02:01:21;;;;;;;22.20;5.60;;;;;;;0.33;78.48;101757.66;108398;1260;22572;-76
2024/01/21 02:04:12;;;;;;;19.30;5.80;;;;;;;0.35;78.55;101757.84;108281;1266;26926;-77
2024/01/21 02:07:03;;;;;;;22.30;5.30;;;;;;;0.38;78.82;101761.89;108223;1267;22659;-78
2024/01/21 02:09:54;;;;;;;18.80;5.60;;;;;;;0.41;78.89;101763.73;108159;1268;22833;-78
2024/01/21 02:12:45;;;;;;;26.00;6.30;;;;;;;0.44;79.05;101767.92;108078;1268;22541;-79
2024/01/21 02:15:36;;;;;;;23.10;5.60;;;;;;;0.45;79.05;101769.20;108216;1268;23356;-76
2024/01/21 02:18:28;;;;;;;23.50;4.50;;;;;;;0.47;79.17;101763.34;108406;1261;22524;-76
2024/01/21 02:21:19;;;;;;;23.80;4.70;;;;;;;0.49;79.28;101761.01;108299;1263;25495;-76
2024/01/21 02:24:10;;;;;;;22.30;5.20;;;;;;;0.49;79.23;101763.52;108280;1263;22577;-78
2024/01/21 02:27:02;;;;;;;28.80;7.50;;;;;;;0.47;79.05;101767.98;108375;1257;22524;-76
2024/01/21 02:29:52;;;;;;;39.00;12.70;;;;;;;0.47;79.20;101770.09;108462;1267;22517;-77
2024/01/21 02:32:43;;;;;;;39.70;12.40;;;;;;;0.48;79.22;101773.16;108299;1266;22624;-77
2024/01/21 02:35:36;;;;;;;36.20;14.30;;;;;;;0.48;79.07;101771.52;108397;1267;25336;-74
2024/01/21 02:38:27;;;;;;;37.20;14.50;;;;;;;0.49;79.06;101777.34;108308;1260;22529;-75
2024/01/21 02:41:18;;;;;;;38.30;12.00;;;;;;;0.49;79.13;101776.78;108416;1267;25597;-78
2024/01/21 02:44:09;;;;;;;34.60;10.70;;;;;;;0.46;78.93;101780.91;108291;1263;23403;-77
2024/01/21 02:47:00;;;;;;;34.70;9.90;;;;;;;0.43;78.95;101778.83;108526;1261;23125;-77
2024/01/21 02:49:51;;;;;;;32.80;9.90;;;;;;;0.43;79.12;101774.83;108310;1264;22691;-78
2024/01/21 02:52:42;;;;;;;31.50;9.70;;;;;;;0.45;79.27;101778.39;108254;1264;24225;-76
2024/01/21 02:55:33;;;;;;;31.30;8.50;;;;;;;0.46;79.25;101780.44;108360;1267;22540;-75
2024/01/21 02:58:24;;;;;;;32.50;6.90;;;;;;;0.47;79.28;101779.13;108415;1257;22955;-78
2024/01/21 03:01:15;;;;;;;25.50;6.40;;;;;;;0.47;79.34;101781.24;108363;1260;23000;-77
2024/01/21 03:04:06;;;;;;;28.80;8.50;;;;;;;0.47;79.24;101784.92;108336;1266;22684;-75
2024/01/21 03:06:57;;;;;;;28.50;8.50;;;;;;;0.47;79.14;101786.96;108159;1268;22508;-74
2024/01/21 03:09:48;;;;;;;27.80;7.40;;;;;;;0.46;79.24;101789.63;108126;1268;25261;-75
2024/01/21 03:12:39;;;;;;;25.40;8.60;;;;;;;0.46;79.46;101793.94;108037;1268;25489;-77
2024/01/21 03:15:30;;;;;;;28.10;8.30;;;;;;;0.46;79.42;101798.96;108319;1259;22666;-78
2024/01/21 03:18:21;;;;;;;29.30;8.00;;;;;;;0.44;79.42;101804.60;108508;1264;22656;-74
2024/01/21 03:21:12;;;;;;;24.40;7.90;;;;;;;0.42;79.44;101801.52;108323;1256;22640;-76
2024/01/21 03:24:03;;;;;;;31.00;8.90;;;;;;;0.39;79.28;101798.50;108412;1267;22620;-75
2024/01/21 03:26:54;;;;;;;28.80;8.10;;;;;;;0.37;79.32;101792.17;108251;1267;22540;-75
2024/01/21 03:29:44;;;;;;;26.50;7.90;;;;;;;0.33;79.17;101792.67;108297;1267;22669;-74
2024/01/21 03:32:35;;;;;;;32.40;8.40;;;;;;;0.28;79.18;101790.25;108171;1263;22647;-75
2024/01/21 03:35:26;;;;;;;41.70;13.10;;;;;;;0.25;79.30;101787.85;108314;1266;23930;-79
2024/01/21 03:38:18;;;;;;;45.10;13.10;;;;;;;0.21;79.12;101792.90;108320;1263;25372;-75
2024/01/21 03:41:09;;;;;;;45.90;16.80;;;;;;;0.16;79.28;101795.11;108442;1259;22614;-76
2024/01/21 03:43:59;;;;;;;45.00;15.00;;;;;;;0.10;79.24;101790.62;108285;1264;25580;-75
2024/01/21 03:46:50;;;;;;;44.00;15.90;;;;;;;0.07;79.48;101786.97;108209;1261;24355;-76
2024/01/21 03:49:42;;;;;;;32.60;11.00;;;;;;;0.04;79.44;101784.81;108024;1260;22779;-75
2024/01/21 03:52:32;;;;;;;36.30;11.30;;;;;;;-0.00;79.50;101782.01;108366;1267;25545;-74
2024/01/21 03:55:24;;;;;;;34.10;11.30;;;;;;;-0.04;79.35;101791.11;108258;1259;23641;-77
2024/01/21 03:58:14;;;;;;;30.60;11.30;;;;;;;-0.15;79.24;101789.00;108319;1261;22709;-75
2024/01/21 04:01:08;;;;;;;34.70;9.60;;;;;;;-0.21;79.39;101791.80;108406;1260;24257;-78
2024/01/21 04:03:58;;;;;;;33.70;10.20;;;;;;;-0.24;79.71;101789.48;108197;1268;22537;-76
2024/01/21 04:06:49;;;;;;;31.20;9.50;;;;;;;-0.26;79.53;101781.21;108205;1268;22936;-79
2024/01/21 04:09:40;;;;;;;34.20;10.20;;;;;;;-0.30;79.52;101779.11;108175;1268;24230;-78
2024/01/21 04:12:30;;;;;;;41.20;15.10;;;;;;;-0.33;79.62;101783.38;108408;1260;22525;-75
2024/01/21 04:15:21;;;;;;;66.80;20.60;;;;;;;-0.37;79.47;101786.06;107958;1268;24180;-74
2024/01/21 04:18:12;;;;;;;60.20;21.90;;;;;;;-0.40;79.47;101786.39;108347;1266;22543;-76
2024/01/21 04:21:03;;;;;;;62.50;23.10;;;;;;;-0.44;79.61;101784.21;108465;1267;25441;-75
2024/01/21 04:23:54;;;;;;;66.70;21.80;;;;;;;-0.46;79.72;101778.14;108401;1266;24360;-76
2024/01/21 04:26:45;;;;;;;60.10;23.20;;;;;;;-0.49;79.62;101775.04;108336;1266;25456;-75
2024/01/21 04:29:36;;;;;;;67.80;20.70;;;;;;;-0.52;79.72;101770.29;108258;1266;25552;-76
2024/01/21 04:32:27;;;;;;;52.70;20.30;;;;;;;-0.55;79.79;101771.73;108306;1266;23271;-74
2024/01/21 04:35:18;;;;;;;53.10;19.00;;;;;;;-0.58;79.77;101769.88;108457;1260;22750;-75
2024/01/21 04:38:09;;;;;;;43.10;15.40;;;;;;;-0.61;79.69;101769.02;108417;1256;22729;-74
2024/01/21 04:41:00;;;;;;;35.50;13.60;;;;;;;-0.65;79.64;101775.55;108327;1263;22585;-75
2024/01/21 04:43:51;;;;;;;39.60;14.70;;;;;;;-0.68;79.67;101779.88;108345;1266;22516;-75
2024/01/21 04:46:42;;;;;;;36.10;11.50;;;;;;;-0.72;79.68;101778.96;108320;1267;23902;-76
2024/01/21 04:49:33;;;;;;;44.10;12.50;;;;;;;-0.76;79.77;101779.20;108277;1260;26073;-77
2024/01/21 04:52:24;;;;;;;36.90;12.50;;;;;;;-0.82;79.84;101782.31;108447;1266;22727;-75
2024/01/21 04:55:15;;;;;;;41.60;13.90;;;;;;;-0.87;79.83;101784.51;108348;1260;22516;-76
2024/01/21 04:58:06;;;;;;;46.80;14.80;;;;;;;-0.93;79.78;101784.06;108317;1260;24336;-76
2024/01/21 05:00:57;;;;;;;41.30;14.70;;;;;;;-0.97;80.17;101781.96;108343;1266;22560;-75
2024/01/21 05:03:48;;;;;;;42.80;12.90;;;;;;;-1.01;80.08;101784.56;108389;1250;22606;-78
2024/01/21 05:06:37;;;;;;;;;;;;;;;-1.08;80.19;101784.02;108226;1268;25293;-75
2024/01/21 05:09:27;;;;;;;34.20;11.10;;;;;;;-1.14;80.35;101776.23;108197;1263;22973;-75
2024/01/21 05:12:19;;;;;;;43.20;13.40;;;;;;;-1.17;80.41;101775.31;108309;1260;22534;-76
2024/01/21 05:15:11;;;;;;;34.80;11.70;;;;;;;-1.21;80.45;101770.70;108238;1266;25723;-75
2024/01/21 05:18:02;;;;;;;35.70;12.80;;;;;;;-1.22;80.43;101774.20;110765;1266;22561;-77
2024/01/21 05:20:53;;;;;;;41.90;10.90;;;;;;;-1.25;80.43;101773.44;108350;1266;22612;-76
2024/01/21 05:23:44;;;;;;;40.10;13.60;;;;;;;-1.26;80.52;101768.56;108405;1266;25524;-75
2024/01/21 05:26:42;;;;;;;82.60;27.80;;;;;;;-1.27;80.53;101765.56;108394;1266;22632;-75
2024/01/21 05:29:33;;;;;;;105.70;35.50;;;;;;;-1.30;80.23;101768.65;109605;1266;22914;-75
2024/01/21 05:32:23;;;;;;;113.70;42.60;;;;;;;-1.33;80.17;101761.14;108314;1266;22535;-75
2024/01/21 05:35:15;;;;;;;109.50;41.60;;;;;;;-1.35;80.43;101757.36;108434;1260;22520;-74
2024/01/21 05:38:06;;;;;;;78.90;30.90;;;;;;;-1.37;80.35;101756.83;108290;1264;22688;-75
2024/01/21 05:40:57;;;;;;;57.80;19.70;;;;;;;-1.41;80.18;101750.11;108485;1266;23326;-77
2024/01/21 05:43:48;;;;;;;58.70;21.00;;;;;;;-1.46;80.00;101752.06;108346;1266;22758;-76
2024/01/21 05:46:39;;;;;;;59.10;19.90;;;;;;;-1.51;79.94;101755.62;108458;1263;25437;-76
2024/01/21 05:49:30;;;;;;;67.10;24.70;;;;;;;-1.56;80.07;101752.62;108354;1259;22569;-76
2024/01/21 05:52:21;;;;;;;78.70;27.20;;;;;;;-1.64;80.01;101753.25;108362;1266;22719;-75
2024/01/21 05:55:12;;;;;;;76.70;25.90;;;;;;;-1.72;80.16;101750.27;108447;1260;22596;-75
2024/01/21 05:58:04;;;;;;;73.00;25.20;;;;;;;-1.73;80.46;101752.19;108471;1266;22530;-75
2024/01/21 06:00:54;;;;;;;80.50;29.10;;;;;;;-1.75;80.19;101751.14;108216;1267;22770;-75
2024/01/21 06:03:43;;;;;;;;;;;;;;;-1.82;80.19;101749.20;108299;1267;22768;-76
2024/01/21 06:06:34;;;;;;;82.80;27.30;;;;;;;-1.84;80.42;101751.65;108434;1258;22758;-78
2024/01/21 06:09:25;;;;;;;72.60;26.60;;;;;;;-1.84;80.53;101754.85;108394;1266;22525;-74
2024/01/21 06:12:16;;;;;;;56.70;22.40;;;;;;;-1.84;80.47;101752.95;108497;1267;25328;-76
2024/01/21 06:15:09;;;;;;;57.50;21.60;;;;;;;-1.87;80.45;101750.19;108412;1266;24209;-75
2024/01/21 06:18:00;;;;;;;57.30;21.20;;;;;;;-1.88;80.45;101752.27;108354;1260;24076;-77
2024/01/21 06:20:51;;;;;;;54.90;23.10;;;;;;;-1.91;80.33;101751.19;108341;1260;22517;-75
2024/01/21 06:23:42;;;;;;;47.10;20.40;;;;;;;-1.92;80.49;101752.48;108415;1266;22528;-75
2024/01/21 06:26:37;;;;;;;52.90;21.30;;;;;;;-1.95;80.25;101758.60;108429;1263;23305;-76
2024/01/21 06:29:28;;;;;;;56.50;21.00;;;;;;;-2.01;80.23;101762.07;108430;1266;25505;-77
2024/01/21 06:32:19;;;;;;;52.60;20.50;;;;;;;-2.07;80.48;101758.64;108419;1267;25470;-75
2024/01/21 06:35:11;;;;;;;60.30;23.10;;;;;;;-2.08;80.56;101764.09;108461;1266;25268;-76
2024/01/21 06:38:02;;;;;;;58.50;22.90;;;;;;;-2.12;80.43;101764.09;108347;1260;22759;-74
2024/01/21 06:40:53;;;;;;;50.70;19.30;;;;;;;-2.14;80.42;101767.39;108374;1260;24359;-75
2024/01/21 06:43:44;;;;;;;52.50;20.50;;;;;;;-2.16;80.27;101768.13;108296;1263;22640;-74
2024/01/21 06:46:35;;;;;;;53.80;20.80;;;;;;;-2.19;80.26;101773.59;108383;1263;24973;-74
2024/01/21 06:49:26;;;;;;;62.30;23.30;;;;;;;-2.24;80.31;101770.45;108347;1267;22725;-74
2024/01/21 06:52:17;;;;;;;57.60;22.00;;;;;;;-2.28;80.33;101773.71;108334;1267;22633;-75
2024/01/21 06:55:10;;;;;;;49.40;21.00;;;;;;;-2.28;80.62;101767.39;108393;1267;22583;-74
2024/01/21 06:58:01;;;;;;;64.80;24.40;;;;;;;-2.28;80.48;101770.95;108268;1268;25492;-74
2024/01/21 07:00:52;;;;;;;58.30;22.90;;;;;;;-2.31;80.37;101773.17;108252;1267;24198;-74
2024/01/21 07:03:42;;;;;;;56.90;21.40;;;;;;;-2.32;80.36;101775.33;108015;1268;22773;-74
2024/01/21 07:06:33;;;;;;;64.80;24.30;;;;;;;-2.34;80.44;101774.36;108404;1267;22563;-74
2024/01/21 07:09:25;;;;;;;72.20;26.10;;;;;;;-2.36;80.48;101777.59;108386;1254;25467;-73
2024/01/21 07:12:16;;;;;;;61.50;25.70;;;;;;;-2.36;80.68;101776.89;108404;1266;22517;-76
2024/01/21 07:15:09;;;;;;;71.30;25.90;;;;;;;-2.36;80.78;101770.88;108323;1263;22567;-74
2024/01/21 07:18:00;;;;;;;62.80;26.00;;;;;;;-2.36;80.77;101769.38;111635;1266;22434;-74
2024/01/21 07:20:49;;;;;;;;;;;;;;;-2.38;80.82;101769.18;111619;1266;23059;-74
2024/01/21 07:23:41;;;;;;;72.80;22.90;;;;;;;-2.41;80.82;101774.02;111641;1266;22200;-75
2024/01/21 07:26:31;;;;;;;57.50;21.50;;;;;;;-2.43;80.94;101774.36;111625;1263;22215;-75
2024/01/21 07:29:25;;;;;;;61.30;23.00;;;;;;;-2.43;80.97;101776.70;111521;1260;122869;-75
2024/01/21 07:32:16;;;;;;;56.80;22.80;;;;;;;-2.43;80.90;101789.52;111436;1266;22182;-72
2024/01/21 07:35:08;;;;;;;57.50;24.10;;;;;;;-2.41;81.10;101789.57;111625;1263;22163;-72
2024/01/21 07:37:59;;;;;;;59.90;24.20;;;;;;;-2.37;81.33;101798.80;111625;1263;22142;-73
2024/01/21 07:40:50;;;;;;;67.50;26.50;;;;;;;-2.34;81.36;101807.02;111624;1260;22212;-72
2024/01/21 07:43:41;;;;;;;65.50;26.30;;;;;;;-2.33;81.43;101808.05;111634;1260;22193;-73
2024/01/21 07:46:31;;;;;;;65.70;25.60;;;;;;;-2.29;81.68;101795.55;111633;1259;22344;-73
2024/01/21 07:49:22;;;;;;;66.60;29.20;;;;;;;-2.24;81.77;101788.24;111636;1259;22306;-73
2024/01/21 07:52:16;;;;;;;63.40;25.40;;;;;;;-2.21;81.89;101788.17;111613;1266;22298;-73
2024/01/21 07:55:08;;;;;;;58.20;24.50;;;;;;;-2.18;81.99;101797.55;111626;1259;22154;-74
2024/01/21 07:57:58;;;;;;;62.50;22.00;;;;;;;-2.14;81.93;101793.74;111287;1256;22205;-72
2024/01/21 08:00:49;;;;;;;58.20;23.50;;;;;;;-2.12;81.97;101796.27;111442;1268;23052;-73
2024/01/21 08:03:40;;;;;;;57.60;21.80;;;;;;;-2.12;81.98;101796.34;111476;1267;22143;-73
2024/01/21 08:06:32;;;;;;;53.50;21.30;;;;;;;-2.09;82.02;101802.05;111619;1256;22431;-73
2024/01/21 08:09:23;;;;;;;61.60;22.50;;;;;;;-2.07;82.06;101801.73;111649;1263;22053;-72
2024/01/21 08:12:12;;;;;;;;;;;;;;;-2.04;82.11;101802.96;111643;1251;22361;-74
2024/01/21 08:15:03;;;;;;;60.70;23.00;;;;;;;-2.02;82.04;101804.09;111614;1260;22207;-72
2024/01/21 08:17:54;;;;;;;55.40;23.70;;;;;;;-2.00;81.95;101809.06;111612;1263;22130;-73
2024/01/21 08:20:46;;;;;;;58.60;25.50;;;;;;;-2.03;81.94;101811.83;111472;1260;22310;-73
2024/01/21 08:23:37;;;;;;;65.80;27.40;;;;;;;-2.04;81.90;101811.16;111662;1260;22578;-72
2024/01/21 08:26:27;;;;;;;76.90;29.00;;;;;;;-2.04;82.01;101812.02;111653;1263;23111;-73
2024/01/21 08:29:18;;;;;;;78.60;34.00;;;;;;;-2.00;82.15;101810.25;111639;1256;22483;-74
2024/01/21 08:32:09;;;;;;;71.20;27.60;;;;;;;-1.99;82.17;101804.96;111623;1260;22140;-73
2024/01/21 08:35:00;;;;;;;65.90;28.40;;;;;;;-1.99;82.02;101798.48;111625;1266;22389;-73
2024/01/21 08:37:51;;;;;;;46.00;17.80;;;;;;;-2.00;82.03;101806.25;111646;1266;23023;-72
2024/01/21 08:40:41;;;;;;;49.40;18.50;;;;;;;-1.99;82.15;101806.06;111634;1263;22239;-73
2024/01/21 08:43:32;;;;;;;54.70;20.10;;;;;;;-1.94;82.18;101807.88;111647;1266;22169;-73
2024/01/21 08:46:23;;;;;;;49.20;19.10;;;;;;;-1.89;82.13;101806.02;111624;1266;22923;-73
2024/01/21 08:49:14;;;;;;;46.00;17.10;;;;;;;-1.85;81.95;101805.35;111486;1266;22344;-72
2024/01/21 08:52:05;;;;;;;52.90;18.00;;;;;;;-1.83;81.96;101802.44;111633;1267;22114;-73
2024/01/21 08:54:57;;;;;;;52.00;18.30;;;;;;;-1.79;81.89;101805.96;111499;1267;22262;-73
2024/01/21 08:57:48;;;;;;;57.20;17.80;;;;;;;-1.75;81.99;101800.34;111621;1267;22272;-72
2024/01/21 09:00:39;;;;;;;49.50;17.80;;;;;;;-1.70;82.06;101801.54;111478;1267;22180;-72
2024/01/21 09:03:30;;;;;;;47.10;16.10;;;;;;;-1.66;82.01;101801.26;111608;1260;22177;-73
2024/01/21 09:06:21;;;;;;;44.30;14.80;;;;;;;-1.60;81.94;101800.34;111612;1266;22124;-72
2024/01/21 09:09:12;;;;;;;50.40;17.00;;;;;;;-1.54;82.12;101791.02;111632;1266;22206;-73
2024/01/21 09:12:03;;;;;;;43.80;14.90;;;;;;;-1.48;81.85;101785.96;111611;1260;22221;-73
2024/01/21 09:14:54;;;;;;;45.00;14.40;;;;;;;-1.42;81.96;101781.23;111470;1266;22487;-74
2024/01/21 09:17:45;;;;;;;44.80;14.70;;;;;;;-1.35;81.88;101778.94;111610;1263;22129;-72
2024/01/21 09:20:35;;;;;;;41.10;13.60;;;;;;;-1.29;81.79;101771.95;111622;1266;22779;-73
2024/01/21 09:23:26;;;;;;;41.40;14.10;;;;;;;-1.20;81.87;101766.56;111626;1263;22348;-73
2024/01/21 09:26:17;;;;;;;49.40;16.80;;;;;;;-1.13;81.99;101773.20;111629;1263;22166;-73
2024/01/21 09:29:09;;;;;;;62.80;19.20;;;;;;;-1.06;81.98;101770.13;111598;1263;22093;-74
2024/01/21 09:32:00;;;;;;;85.70;22.40;;;;;;;-1.00;81.80;101758.71;111615;1263;22114;-73
2024/01/21 09:34:51;;;;;;;61.40;19.90;;;;;;;-0.93;81.73;101758.69;111616;1255;22200;-73
2024/01/21 09:37:42;;;;;;;73.40;24.00;;;;;;;-0.84;81.82;101753.68;111626;1256;22307;-73
2024/01/21 09:40:31;;;;;;;;;;;;;;;-0.75;82.04;101747.17;111627;1263;22405;-72
2024/01/21 09:43:24;;;;;;;44.30;15.00;;;;;;;-0.67;81.85;101740.65;111638;1266;22582;-73
2024/01/21 09:46:15;;;;;;;43.80;14.60;;;;;;;-0.59;81.83;101744.77;111592;1260;22380;-72
2024/01/21 09:49:07;;;;;;;41.90;12.60;;;;;;;-0.53;81.86;101748.65;111617;1260;23519;-74
2024/01/21 09:51:58;;;;;;;30.80;9.50;;;;;;;-0.44;81.95;101755.69;111501;1267;22181;-73
2024/01/21 09:54:50;;;;;;;32.90;9.40;;;;;;;-0.36;81.72;101753.93;111494;1268;22157;-72
2024/01/21 09:57:41;;;;;;;32.40;9.90;;;;;;;-0.27;81.90;101754.30;111480;1256;22168;-74
2024/01/21 10:00:33;;;;;;;32.40;9.90;;;;;;;-0.20;81.57;101752.77;111670;1266;22086;-72
2024/01/21 10:03:24;;;;;;;26.90;8.90;;;;;;;-0.13;81.47;101747.86;111649;1263;22148;-73
2024/01/21 10:06:14;;;;;;;29.50;10.00;;;;;;;-0.05;81.47;101744.20;111661;1260;22147;-73
2024/01/21 10:09:16;;;;;;;34.50;9.90;;;;;;;0.03;81.38;101746.83;111671;1260;22257;-73
2024/01/21 10:12:08;;;;;;;29.80;9.20;;;;;;;0.10;81.57;101746.30;111643;1266;22085;-77
2024/01/21 10:14:59;;;;;;;35.40;11.00;;;;;;;0.17;81.36;101739.41;111675;1260;22359;-74
2024/01/21 10:17:51;;;;;;;34.40;10.80;;;;;;;0.23;81.14;101735.80;109267;1263;23458;-75
2024/01/21 10:20:43;;;;;;;36.30;12.50;;;;;;;0.30;81.37;101734.46;108353;1263;22573;-75
2024/01/21 10:23:34;;;;;;;38.60;12.20;;;;;;;0.35;81.54;101725.04;111642;1266;22905;-73
2024/01/21 10:26:24;;;;;;;36.80;11.10;;;;;;;0.39;81.39;101724.70;111653;1260;22166;-73
2024/01/21 10:29:16;;;;;;;36.80;9.80;;;;;;;0.43;81.36;101720.20;111673;1267;22120;-73
2024/01/21 10:32:09;;;;;;;36.00;12.50;;;;;;;0.50;81.21;101723.02;111660;1263;22145;-73
2024/01/21 10:35:00;;;;;;;35.20;11.80;;;;;;;0.55;81.45;101719.64;111649;1262;23042;-74
2024/01/21 10:37:49;;;;;;;;;;;;;;;0.61;81.27;101711.54;111659;1261;22328;-74
2024/01/21 10:40:43;;;;;;;40.30;12.80;;;;;;;0.65;81.42;101709.15;111643;1256;22140;-73
2024/01/21 10:43:36;;;;;;;38.70;12.90;;;;;;;0.71;81.49;101704.25;111368;1260;22146;-73
2024/01/21 10:46:27;;;;;;;37.20;13.60;;;;;;;0.79;81.56;101703.56;111627;1260;22295;-73
2024/01/21 10:49:21;;;;;;;40.90;14.30;;;;;;;0.86;81.25;101694.91;111595;1260;22332;-73
2024/01/21 10:52:14;;;;;;;45.30;14.30;;;;;;;0.94;81.26;101689.02;111586;1260;23219;-74
2024/01/21 10:55:06;;;;;;;37.40;11.70;;;;;;;1.03;81.26;101687.13;111524;1266;22620;-73
2024/01/21 10:57:57;;;;;;;50.70;17.50;;;;;;;1.12;81.36;101684.31;111514;1264;22165;-73
2024/01/21 11:00:50;;;;;;;45.70;16.20;;;;;;;1.23;81.19;101677.23;111604;1266;22156;-74
2024/01/21 11:03:43;;;;;;;48.00;17.10;;;;;;;1.36;80.99;101679.09;111586;1261;22174;-74
2024/01/21 11:06:34;;;;;;;60.10;18.90;;;;;;;1.48;81.13;101677.91;111632;1267;22215;-74
2024/01/21 11:09:28;;;;;;;51.40;17.30;;;;;;;1.57;81.13;101671.68;111597;1263;22865;-75
2024/01/21 11:12:19;;;;;;;50.80;18.00;;;;;;;1.67;80.85;101672.05;111592;1255;22601;-74
2024/01/21 11:15:29;;;;;;;66.30;21.80;;;;;;;1.76;80.87;101669.28;111472;1263;22204;-74
2024/01/21 11:18:25;;;;;;;62.40;19.40;;;;;;;1.86;80.56;101666.12;111610;1263;22694;-74
2024/01/21 11:21:21;;;;;;;67.90;21.10;;;;;;;1.93;80.38;101669.84;111602;1263;22336;-74
2024/01/21 11:24:14;;;;;;;50.80;17.50;;;;;;;1.99;80.25;101674.20;111594;1267;22157;-74
2024/01/21 11:27:07;;;;;;;66.10;22.60;;;;;;;2.05;80.14;101675.33;111581;1260;22253;-74
2024/01/21 11:29:59;;;;;;;61.70;20.50;;;;;;;2.12;80.22;101683.24;111597;1263;22330;-74
2024/01/21 11:32:59;;;;;;;66.50;23.00;;;;;;;2.18;80.09;101683.02;109907;1267;22789;-74
2024/01/21 11:35:51;;;;;;;47.40;17.10;;;;;;;2.24;79.71;101673.54;108312;1263;22531;-73
2024/01/21 11:38:43;;;;;;;48.60;16.90;;;;;;;2.27;79.59;101667.94;108426;1267;22523;-74
2024/01/21 11:41:41;;;;;;;42.00;14.00;;;;;;;2.28;79.43;101668.04;108386;1260;25357;-73
2024/01/21 11:44:34;;;;;;;38.10;13.80;;;;;;;2.28;79.32;101663.93;111548;1260;23009;-76
2024/01/21 11:47:24;;;;;;;44.80;13.70;;;;;;;2.31;79.20;101658.05;111624;1263;22360;-78
2024/01/21 11:50:19;;;;;;;40.50;14.00;;;;;;;2.34;78.97;101653.64;111602;1263;22613;-78
2024/01/21 11:53:10;;;;;;;43.70;16.00;;;;;;;2.38;78.96;101641.85;111574;1266;22231;-78
2024/01/21 11:55:58;;;;;;;;;;;;;;;2.44;78.77;101641.70;111602;1260;22314;-78
2024/01/21 11:58:50;;;;;;;44.40;14.30;;;;;;;2.53;78.73;101642.52;111603;1260;22130;-79
2024/01/21 12:01:43;;;;;;;40.60;13.00;;;;;;;2.61;78.80;101637.48;111530;1257;23039;-77
2024/01/21 12:04:34;;;;;;;33.10;11.60;;;;;;;2.66;78.30;101635.77;111501;1260;22277;-80
2024/01/21 12:07:26;;;;;;;31.40;11.30;;;;;;;2.71;78.18;101635.77;111579;1259;22332;-77
2024/01/21 12:10:18;;;;;;;34.90;10.80;;;;;;;2.76;77.73;101631.84;111561;1260;22284;-77
2024/01/21 12:13:08;;;;;;;;;;;;;;;2.80;78.00;101621.98;111437;1260;22384;-79
2024/01/21 12:15:59;;;;;;;28.70;8.60;;;;;;;2.84;77.40;101609.95;111542;1267;22831;-78
2024/01/21 12:18:50;;;;;;;30.00;8.20;;;;;;;2.83;77.15;101603.16;111456;1260;23061;-78
2024/01/21 12:21:43;;;;;;;36.00;10.60;;;;;;;2.81;77.09;101599.55;111565;1266;22308;-78
2024/01/21 12:24:39;;;;;;;32.20;10.00;;;;;;;2.80;77.00;101598.83;110005;1267;22634;-76
2024/01/21 12:27:30;;;;;;;35.80;11.00;;;;;;;2.79;77.12;101599.08;108333;1261;22659;-74
2024/01/21 12:30:25;;;;;;;32.30;9.70;;;;;;;2.79;76.66;101601.03;108439;1263;22522;-76
2024/01/21 12:33:16;;;;;;;33.70;9.50;;;;;;;2.78;76.74;101600.33;108387;1266;23372;-76
2024/01/21 12:36:08;;;;;;;30.70;10.20;;;;;;;2.77;76.68;101591.82;108240;1263;22651;-77
2024/01/21 12:39:00;;;;;;;46.20;14.70;;;;;;;2.76;76.58;101588.50;108499;1247;23133;-77
2024/01/21 12:41:51;;;;;;;48.80;16.50;;;;;;;2.76;76.54;101584.09;108659;1262;22611;-77
2024/01/21 12:44:41;;;;;;;51.30;18.30;;;;;;;2.75;76.60;101576.91;108419;1264;22571;-77
2024/01/21 12:47:32;;;;;;;50.00;17.30;;;;;;;2.77;76.78;101572.98;108747;1263;22527;-76
2024/01/21 12:50:24;;;;;;;47.50;16.00;;;;;;;2.77;76.34;101574.16;108650;1263;22508;-77
2024/01/21 12:53:15;;;;;;;50.50;15.80;;;;;;;2.77;76.54;101571.72;111585;1263;22767;-79
2024/01/21 12:56:06;;;;;;;32.50;10.00;;;;;;;2.77;76.23;101567.63;111519;1263;22582;-77
2024/01/21 12:58:58;;;;;;;39.70;13.00;;;;;;;2.78;76.23;101569.28;111449;1259;22118;-78
2024/01/21 13:01:46;;;;;;;;;;;;;;;2.81;76.19;101567.71;111564;1263;23103;-77